createdAt,value
2022-09-13T00:01:00.834Z,14.93
2022-09-13T00:03:05.674Z,16.23
2022-09-13T00:05:08.638Z,15.57
2022-09-13T00:07:10.874Z,15.45
2022-09-13T00:09:13.117Z,15.05
2022-09-13T00:11:17.606Z,15.55
2022-09-13T00:13:19.907Z,15.50
2022-09-13T00:15:22.864Z,17.05
2022-09-13T00:17:26.214Z,16.70
2022-09-13T00:19:30.950Z,16.70
2022-09-13T00:21:33.105Z,19.48
2022-09-13T00:23:35.453Z,18.35
2022-09-13T00:25:37.818Z,18.52
2022-09-13T00:27:40.052Z,18.42
2022-09-13T00:29:42.220Z,18.10
2022-09-13T00:31:44.382Z,18.25
2022-09-13T00:33:46.611Z,15.95
2022-09-13T00:35:51.369Z,15.80
2022-09-13T00:37:53.832Z,16.17
2022-09-13T00:39:56.004Z,17.15
2022-09-13T00:41:58.200Z,17.85
2022-09-13T00:44:01.946Z,17.50
2022-09-13T00:46:05.009Z,19.17
2022-09-13T00:48:11.025Z,18.95
2022-09-13T00:50:19.189Z,18.23
2022-09-13T00:52:26.748Z,18.73
2022-09-13T00:54:35.031Z,19.83
2022-09-13T00:56:42.836Z,20.80
2022-09-13T00:58:49.308Z,20.58
2022-09-13T01:00:52.507Z,21.10
2022-09-13T01:02:58.555Z,18.87
2022-09-13T01:05:00.854Z,23.08
2022-09-13T01:07:07.621Z,22.45
2022-09-13T01:09:13.271Z,22.38
2022-09-13T01:11:24.681Z,22.00
2022-09-13T01:13:32.025Z,23.60
2022-09-13T01:15:34.920Z,21.73
2022-09-13T01:17:39.464Z,20.48
2022-09-13T01:19:41.766Z,21.83
2022-09-13T01:22:22.451Z,20.92
2022-09-13T01:24:56.864Z,19.98
2022-09-13T01:27:28.557Z,18.40
2022-09-13T01:30:12.729Z,18.20
2022-09-13T01:32:28.247Z,16.85
2022-09-13T01:34:40.990Z,16.90
2022-09-13T01:36:54.755Z,17.98
2022-09-13T01:39:01.905Z,15.45
2022-09-13T01:41:11.506Z,13.68
2022-09-13T01:43:26.061Z,12.77
2022-09-13T01:45:37.488Z,14.07
2022-09-13T01:47:49.164Z,14.20
2022-09-13T01:49:59.393Z,12.80
2022-09-13T01:52:07.874Z,13.05
2022-09-13T01:54:17.497Z,12.32
2022-09-13T01:56:26.925Z,12.50
2022-09-13T01:58:34.839Z,13.15
2022-09-13T02:00:45.677Z,11.73
2022-09-13T02:02:56.748Z,12.23
2022-09-13T02:05:04.028Z,13.18
2022-09-13T02:07:13.484Z,11.00
2022-09-13T02:09:21.431Z,12.90
2022-09-13T02:11:24.620Z,12.18
2022-09-13T02:13:31.623Z,11.05
2022-09-13T02:15:39.920Z,12.98
2022-09-13T02:17:47.191Z,11.90
2022-09-13T02:19:55.306Z,10.43
2022-09-13T02:22:01.042Z,11.32
2022-09-13T02:24:07.798Z,12.23
2022-09-13T02:26:14.635Z,12.52
2022-09-13T02:28:24.129Z,11.57
2022-09-13T02:30:28.387Z,12.48
2022-09-13T02:32:36.327Z,12.38
2022-09-13T02:34:42.073Z,11.52
2022-09-13T02:36:49.452Z,12.00
2022-09-13T02:38:55.818Z,12.85
2022-09-13T02:41:01.236Z,13.20
2022-09-13T02:43:08.764Z,12.55
2022-09-13T02:45:13.787Z,11.77
2022-09-13T02:47:32.924Z,12.88
2022-09-13T02:49:44.167Z,12.02
2022-09-13T02:51:55.060Z,11.70
2022-09-13T02:54:09.522Z,13.00
2022-09-13T02:58:27.899Z,12.70
2022-09-13T03:00:30.345Z,13.55
2022-09-13T03:02:34.743Z,12.48
2022-09-13T03:04:37.117Z,13.38
2022-09-13T03:06:42.150Z,12.90
2022-09-13T03:08:47.043Z,13.38
2022-09-13T03:10:57.511Z,13.15
2022-09-13T03:13:24.938Z,12.90
2022-09-13T03:15:43.800Z,13.13
2022-09-13T03:17:55.670Z,14.05
2022-09-13T03:20:09.390Z,12.57
2022-09-13T03:22:28.327Z,11.57
2022-09-13T03:24:45.076Z,10.38
2022-09-13T03:26:59.016Z,8.13
2022-09-13T03:29:13.104Z,6.30
2022-09-13T03:31:32.859Z,5.55
2022-09-13T03:33:44.292Z,4.30
2022-09-13T03:35:54.217Z,4.68
2022-09-13T03:38:02.003Z,3.60
2022-09-13T03:40:10.598Z,3.40
2022-09-13T03:42:18.669Z,2.70
2022-09-13T03:44:23.639Z,2.80
2022-09-13T03:46:31.019Z,3.10
2022-09-13T03:48:37.921Z,2.70
2022-09-13T03:50:41.098Z,2.70
2022-09-13T03:52:46.602Z,2.97
2022-09-13T03:54:48.852Z,2.67
2022-09-13T03:57:09.852Z,2.58
2022-09-13T03:59:12.211Z,2.58
2022-09-13T04:01:18.160Z,2.45
2022-09-13T04:03:20.680Z,2.60
2022-09-13T04:05:22.838Z,2.50
2022-09-13T04:07:25.579Z,2.70
2022-09-13T04:09:27.760Z,2.60
2022-09-13T04:11:30.220Z,2.50
2022-09-13T04:13:35.008Z,2.53
2022-09-13T04:15:37.252Z,2.33
2022-09-13T04:17:39.369Z,2.30
2022-09-13T04:19:42.637Z,2.35
2022-09-13T04:21:47.004Z,2.58
2022-09-13T04:23:50.690Z,2.47
2022-09-13T04:25:53.566Z,2.30
2022-09-13T04:27:56.601Z,2.30
2022-09-13T04:30:01.466Z,2.10
2022-09-13T04:32:04.120Z,2.67
2022-09-13T04:34:07.053Z,2.40
2022-09-13T04:36:09.190Z,2.50
2022-09-13T04:38:11.367Z,2.25
2022-09-13T04:40:14.677Z,2.03
2022-09-13T04:42:16.838Z,2.50
2022-09-13T04:44:19.110Z,2.47
2022-09-13T04:46:23.898Z,2.45
2022-09-13T04:48:26.176Z,2.00
2022-09-13T04:50:28.501Z,2.45
2022-09-13T04:52:30.633Z,2.25
2022-09-13T04:54:32.814Z,2.40
2022-09-13T04:56:34.984Z,2.42
2022-09-13T04:58:37.283Z,2.10
2022-09-13T05:00:39.526Z,2.20
2022-09-13T05:02:44.662Z,2.17
2022-09-13T05:04:47.021Z,2.20
2022-09-13T05:06:49.177Z,2.28
2022-09-13T05:08:55.068Z,2.22
2022-09-13T05:10:58.246Z,2.55
2022-09-13T05:13:01.393Z,2.40
2022-09-13T05:15:05.153Z,2.28
2022-09-13T05:17:07.619Z,2.42
2022-09-13T05:19:13.339Z,2.78
2022-09-13T05:21:20.517Z,2.60
2022-09-13T05:23:23.274Z,2.47
2022-09-13T05:25:26.206Z,2.58
2022-09-13T05:27:28.518Z,2.65
2022-09-13T05:29:30.717Z,2.60
2022-09-13T05:31:35.780Z,2.92
2022-09-13T05:33:38.959Z,3.20
2022-09-13T05:35:44.025Z,2.65
2022-09-13T05:37:46.370Z,3.30
2022-09-13T05:40:10.325Z,2.97
2022-09-13T05:42:12.765Z,2.90
2022-09-13T05:44:14.976Z,2.70
2022-09-13T05:46:19.880Z,3.25
2022-09-13T05:48:25.290Z,3.25
2022-09-13T05:50:56.953Z,3.40
2022-09-13T05:52:55.147Z,3.13
2022-09-13T05:54:57.339Z,2.90
2022-09-13T05:56:59.534Z,3.03
2022-09-13T05:59:01.711Z,3.05
2022-09-13T06:01:03.867Z,2.90
2022-09-13T06:03:05.997Z,2.83
2022-09-13T06:05:14.646Z,2.88
2022-09-13T06:07:16.850Z,2.85
2022-09-13T06:09:21.694Z,2.50
2022-09-13T06:11:25.661Z,2.70
2022-09-13T06:15:30.354Z,3.00
2022-09-13T06:17:32.529Z,2.80
2022-09-13T06:19:35.315Z,2.33
2022-09-13T06:21:38.368Z,2.70
2022-09-13T06:23:40.772Z,3.05
2022-09-13T06:25:45.510Z,2.80
2022-09-13T06:27:50.000Z,3.20
2022-09-13T06:29:52.443Z,3.40
2022-09-13T06:31:55.076Z,3.60
2022-09-13T06:33:59.024Z,3.63
2022-09-13T06:36:02.626Z,3.42
2022-09-13T06:38:04.796Z,3.45
2022-09-13T06:40:07.598Z,3.30
2022-09-13T06:42:12.476Z,3.60
2022-09-13T06:44:14.848Z,3.72
2022-09-13T06:46:23.865Z,3.58
2022-09-13T06:48:27.038Z,3.47
2022-09-13T06:50:29.216Z,3.72
2022-09-13T06:52:31.429Z,3.15
2022-09-13T06:54:33.653Z,3.35
2022-09-13T06:56:37.968Z,3.10
2022-09-13T06:58:44.683Z,3.22
2022-09-13T07:00:46.949Z,3.47
2022-09-13T07:02:51.894Z,2.97
2022-09-13T07:04:54.214Z,3.08
2022-09-13T07:06:56.399Z,2.90
2022-09-13T07:09:00.828Z,3.35
2022-09-13T07:11:03.000Z,3.40
2022-09-13T07:13:05.139Z,3.30
2022-09-13T07:15:11.070Z,2.90
2022-09-13T07:17:13.243Z,2.78
2022-09-13T07:19:17.689Z,2.95
2022-09-13T07:21:20.694Z,2.72
2022-09-13T07:23:23.773Z,3.28
2022-09-13T07:25:26.115Z,2.70
2022-09-13T07:27:28.392Z,2.65
2022-09-13T07:29:30.669Z,2.33
2022-09-13T07:31:38.262Z,2.40
2022-09-13T07:33:42.115Z,2.00
2022-09-13T07:35:44.293Z,2.67
2022-09-13T07:37:46.828Z,1.90
2022-09-13T07:39:49.465Z,1.98
2022-09-13T07:41:53.723Z,2.13
2022-09-13T07:43:57.434Z,1.85
2022-09-13T07:46:00.978Z,1.95
2022-09-13T07:48:05.952Z,1.67
2022-09-13T07:50:08.985Z,1.75
2022-09-13T07:52:11.219Z,1.85
2022-09-13T07:54:15.249Z,2.20
2022-09-13T07:58:20.355Z,2.28
2022-09-13T08:00:25.735Z,1.80
2022-09-13T08:02:28.624Z,1.90
2022-09-13T08:04:36.427Z,2.30
2022-09-13T08:06:40.375Z,1.83
2022-09-13T08:08:42.621Z,2.05
2022-09-13T08:10:49.290Z,1.67
2022-09-13T08:12:51.736Z,2.20
2022-09-13T08:14:53.957Z,2.00
2022-09-13T08:16:57.119Z,2.08
2022-09-13T08:19:03.087Z,1.92
2022-09-13T08:21:08.017Z,1.75
2022-09-13T08:23:12.486Z,1.80
2022-09-13T08:25:15.591Z,1.60
2022-09-13T08:27:17.772Z,1.88
2022-09-13T08:29:20.204Z,1.77
2022-09-13T08:31:23.244Z,1.80
2022-09-13T08:33:25.611Z,1.92
2022-09-13T08:35:27.905Z,1.83
2022-09-13T08:37:34.535Z,1.80
2022-09-13T08:39:37.000Z,1.63
2022-09-13T08:42:01.199Z,1.90
2022-09-13T08:44:09.651Z,1.58
2022-09-13T08:46:24.444Z,1.90
2022-09-13T08:48:33.657Z,1.70
2022-09-13T08:50:38.505Z,1.40
2022-09-13T08:52:49.221Z,1.50
2022-09-13T08:54:54.870Z,1.67
2022-09-13T08:57:09.909Z,1.70
2022-09-13T08:59:33.152Z,1.92
2022-09-13T09:01:48.673Z,1.60
2022-09-13T09:03:58.507Z,1.33
2022-09-13T09:06:03.005Z,1.80
2022-09-13T09:08:23.617Z,1.77
2022-09-13T09:10:33.063Z,1.98
2022-09-13T09:12:41.883Z,1.70
2022-09-13T09:14:47.107Z,1.63
2022-09-13T09:16:53.590Z,1.58
2022-09-13T09:19:00.202Z,1.50
2022-09-13T09:21:04.116Z,1.70
2022-09-13T09:23:17.920Z,2.00
2022-09-13T09:25:26.799Z,1.60
2022-09-13T09:27:30.945Z,1.70
2022-09-13T09:29:36.957Z,1.60
2022-09-13T09:31:48.518Z,1.30
2022-09-13T09:34:02.564Z,1.65
2022-09-13T09:36:09.864Z,1.90
2022-09-13T09:38:41.532Z,1.63
2022-09-13T09:40:43.833Z,1.80
2022-09-13T09:42:48.507Z,1.77
2022-09-13T09:44:53.272Z,1.70
2022-09-13T09:46:59.732Z,1.80
2022-09-13T09:49:30.172Z,1.50
2022-09-13T09:51:33.567Z,1.70
2022-09-13T09:53:43.533Z,1.58
2022-09-13T09:55:48.661Z,2.03
2022-09-13T09:57:53.883Z,1.40
2022-09-13T10:00:11.688Z,1.95
2022-09-13T10:02:17.488Z,1.67
2022-09-13T10:04:22.205Z,1.85
2022-09-13T10:06:28.373Z,1.70
2022-09-13T10:08:49.697Z,2.00
2022-09-13T10:10:54.795Z,1.52
2022-09-13T10:15:33.000Z,1.85
2022-09-13T10:17:39.855Z,1.95
2022-09-13T10:19:54.621Z,1.90
2022-09-13T10:22:02.081Z,1.70
2022-09-13T10:24:22.738Z,1.65
2022-09-13T10:26:29.404Z,1.40
2022-09-13T10:28:35.022Z,1.92
2022-09-13T10:30:40.939Z,1.77
2022-09-13T10:33:02.939Z,2.42
2022-09-13T10:40:29.554Z,1.98
2022-09-13T10:42:32.156Z,1.90
2022-09-13T10:44:40.673Z,1.45
2022-09-13T10:46:43.328Z,1.58
2022-09-13T10:48:56.053Z,1.50
2022-09-13T10:51:08.604Z,1.40
2022-09-13T10:53:40.118Z,1.60
2022-09-13T10:55:56.595Z,1.67
2022-09-13T10:58:19.405Z,1.70
2022-09-13T11:00:33.883Z,1.67
2022-09-13T11:02:59.906Z,1.80
2022-09-13T11:05:21.084Z,1.52
2022-09-13T11:07:46.829Z,1.60
2022-09-13T11:09:55.705Z,1.50
2022-09-13T11:12:11.285Z,1.67
2022-09-13T11:14:37.675Z,1.35
2022-09-13T11:16:50.698Z,1.60
2022-09-13T11:19:18.102Z,1.85
2022-09-13T11:21:34.540Z,1.45
2022-09-13T11:24:06.134Z,1.50
2022-09-13T11:26:22.502Z,1.80
2022-09-13T11:28:38.950Z,1.33
2022-09-13T11:30:52.500Z,1.52
2022-09-13T11:33:24.679Z,1.80
2022-09-13T11:35:43.364Z,1.67
2022-09-13T11:37:54.655Z,1.65
2022-09-13T11:40:10.762Z,1.70
2022-09-13T11:42:28.554Z,2.35
2022-09-13T11:44:56.257Z,1.70
2022-09-13T11:47:07.187Z,1.73
2022-09-13T11:49:48.007Z,1.65
2022-09-13T11:52:02.285Z,2.05
2022-09-13T11:54:19.188Z,1.77
2022-09-13T11:56:26.396Z,1.90
2022-09-13T11:58:32.858Z,1.95
2022-09-13T12:00:44.438Z,2.05
2022-09-13T12:02:58.613Z,1.90
2022-09-13T12:05:21.448Z,2.00
2022-09-13T12:07:33.605Z,1.90
2022-09-13T12:09:40.108Z,1.98
2022-09-13T12:11:48.683Z,2.38
2022-09-13T12:13:53.307Z,1.80
2022-09-13T12:16:02.758Z,2.40
2022-09-13T12:18:12.217Z,1.70
2022-09-13T12:20:20.775Z,2.35
2022-09-13T12:22:28.890Z,1.70
2022-09-13T12:24:39.250Z,1.83
2022-09-13T12:26:48.030Z,1.80
2022-09-13T12:28:56.112Z,2.00
2022-09-13T12:31:05.556Z,1.90
2022-09-13T12:33:08.039Z,2.10
2022-09-13T12:35:19.653Z,1.50
2022-09-13T12:37:46.653Z,2.10
2022-09-13T12:40:16.151Z,1.95
2022-09-13T12:42:46.628Z,1.90
2022-09-13T12:45:04.434Z,1.70
2022-09-13T12:47:32.227Z,1.95
2022-09-13T12:49:51.324Z,1.98
2022-09-13T12:52:21.380Z,1.90
2022-09-13T12:54:55.521Z,2.03
2022-09-13T13:02:30.167Z,2.00
2022-09-13T13:04:37.901Z,1.98
2022-09-13T13:06:48.144Z,2.10
2022-09-13T13:09:04.399Z,1.70
2022-09-13T13:11:10.343Z,2.20
2022-09-13T13:13:15.828Z,2.13
2022-09-13T13:15:50.220Z,2.15
2022-09-13T13:18:18.374Z,1.75
2022-09-13T13:20:47.189Z,2.03
2022-09-13T13:22:53.114Z,2.00
2022-09-13T13:24:57.356Z,2.10
2022-09-13T13:26:59.724Z,2.33
2022-09-13T13:29:15.540Z,2.00
2022-09-13T13:31:35.956Z,2.35
2022-09-13T13:33:53.288Z,1.63
2022-09-13T13:38:39.510Z,2.10
2022-09-13T13:39:40.279Z,1.80
2022-09-13T13:41:53.709Z,1.88
2022-09-13T13:43:56.033Z,2.00
2022-09-13T13:46:29.031Z,2.47
2022-09-13T13:48:38.138Z,1.88
2022-09-13T13:51:17.895Z,2.50
2022-09-13T13:53:34.377Z,2.00
2022-09-13T13:55:44.993Z,1.70
2022-09-13T13:57:59.654Z,1.92
2022-09-13T14:00:11.717Z,1.80
2022-09-13T14:02:15.078Z,1.83
2022-09-13T14:04:50.251Z,1.90
2022-09-13T14:09:08.808Z,1.57
2022-09-13T14:11:30.043Z,1.55
2022-09-13T14:13:46.182Z,2.10
2022-09-13T14:15:56.651Z,2.25
2022-09-13T14:18:31.831Z,1.98
2022-09-13T14:20:34.123Z,2.10
2022-09-13T14:22:36.695Z,1.95
2022-09-13T14:24:43.318Z,1.90
2022-09-13T14:26:50.954Z,2.20
2022-09-13T14:28:53.297Z,1.85
2022-09-13T14:33:01.756Z,1.73
2022-09-13T14:35:26.275Z,1.65
2022-09-13T14:37:33.667Z,1.67
2022-09-13T14:39:35.833Z,1.80
2022-09-13T14:41:38.953Z,1.50
2022-09-13T14:43:45.281Z,1.77
2022-09-13T14:45:50.405Z,1.58
2022-09-13T14:48:08.311Z,1.95
2022-09-13T14:50:15.117Z,1.92
2022-09-13T14:52:23.996Z,1.83
2022-09-13T14:54:34.125Z,1.80
2022-09-13T14:56:41.761Z,1.88
2022-09-13T14:58:53.398Z,1.75
2022-09-13T15:01:00.651Z,1.63
2022-09-13T15:03:10.781Z,1.88
2022-09-13T15:05:16.234Z,1.80
2022-09-13T15:07:27.458Z,1.77
2022-09-13T15:09:30.081Z,1.77
2022-09-13T15:11:35.348Z,1.63
2022-09-13T15:13:38.515Z,1.75
2022-09-13T15:15:45.294Z,1.60
2022-09-13T15:17:55.869Z,1.70
2022-09-13T15:20:05.247Z,2.10
2022-09-13T15:22:23.310Z,1.90
2022-09-13T15:24:32.077Z,1.45
2022-09-13T15:26:34.358Z,2.38
2022-09-13T15:28:50.147Z,1.70
2022-09-13T15:30:56.524Z,1.95
2022-09-13T15:33:15.998Z,2.15
2022-09-13T15:35:27.147Z,2.08
2022-09-13T15:37:35.906Z,1.90
2022-09-13T15:39:48.193Z,1.80
2022-09-13T15:41:55.104Z,1.60
2022-09-13T15:43:57.567Z,1.70
2022-09-13T15:46:02.473Z,2.28
2022-09-13T15:48:08.039Z,1.73
2022-09-13T15:50:20.393Z,1.80
2022-09-13T15:52:24.082Z,1.75
2022-09-13T16:01:47.674Z,1.42
2022-09-13T16:03:55.174Z,1.63
2022-09-13T16:05:58.277Z,1.90
2022-09-13T16:08:05.029Z,2.10
2022-09-13T16:10:12.897Z,1.65
2022-09-13T16:12:15.332Z,1.80
2022-09-13T16:14:19.344Z,1.40
2022-09-13T16:16:21.638Z,1.70
2022-09-13T16:18:24.493Z,1.58
2022-09-13T16:20:29.242Z,1.80
2022-09-13T16:22:31.592Z,1.60
2022-09-13T16:24:33.877Z,1.70
2022-09-13T16:26:36.315Z,1.92
2022-09-13T16:28:39.198Z,1.80
2022-09-13T16:30:43.180Z,1.90
2022-09-13T16:32:48.148Z,2.00
2022-09-13T16:34:51.338Z,1.45
2022-09-13T16:36:56.416Z,1.63
2022-09-13T16:38:59.198Z,1.70
2022-09-13T16:41:04.322Z,1.92
2022-09-13T16:43:06.788Z,2.10
2022-09-13T16:45:10.737Z,1.77
2022-09-13T16:47:12.993Z,1.55
2022-09-13T16:49:17.920Z,1.50
2022-09-13T16:51:24.065Z,1.90
2022-09-13T16:53:31.936Z,2.22
2022-09-13T16:55:34.419Z,1.60
2022-09-13T16:57:37.366Z,1.55
2022-09-13T16:59:41.446Z,1.58
2022-09-13T17:01:43.791Z,1.73
2022-09-13T17:03:46.241Z,1.67
2022-09-13T17:05:59.010Z,1.85
2022-09-13T17:08:01.553Z,1.75
2022-09-13T17:10:09.164Z,1.70
2022-09-13T17:12:13.591Z,1.30
2022-09-13T17:14:17.773Z,1.35
2022-09-13T17:16:26.509Z,1.80
2022-09-13T17:18:28.978Z,1.42
2022-09-13T17:20:31.400Z,1.40
2022-09-13T17:22:34.288Z,1.52
2022-09-13T17:24:37.431Z,1.50
2022-09-13T17:26:42.366Z,1.98
2022-09-13T17:28:44.637Z,1.50
2022-09-13T17:30:54.051Z,1.48
2022-09-13T17:32:56.505Z,1.55
2022-09-13T17:35:02.130Z,1.65
2022-09-13T17:37:09.082Z,1.52
2022-09-13T17:39:11.908Z,1.42
2022-09-13T17:41:18.142Z,1.60
2022-09-13T17:43:23.684Z,1.40
2022-09-13T17:45:28.822Z,1.92
2022-09-13T17:47:31.406Z,1.90
2022-09-13T17:49:38.075Z,1.55
2022-09-13T17:51:40.585Z,1.67
2022-09-13T17:53:46.338Z,1.60
2022-09-13T17:55:50.959Z,1.52
2022-09-13T17:57:55.561Z,1.50
2022-09-13T18:00:03.596Z,1.40
2022-09-13T18:02:06.103Z,1.77
2022-09-13T18:04:09.432Z,1.65
2022-09-13T18:06:14.592Z,1.73
2022-09-13T18:08:19.939Z,1.58
2022-09-13T18:10:48.890Z,1.70
2022-09-13T18:12:52.898Z,2.38
2022-09-13T18:14:58.242Z,1.63
2022-09-13T18:17:15.541Z,1.63
2022-09-13T18:19:29.898Z,1.38
2022-09-13T18:21:41.610Z,1.50
2022-09-13T18:23:44.182Z,1.65
2022-09-13T18:26:01.687Z,1.45
2022-09-13T18:28:05.559Z,1.48
2022-09-13T18:30:09.254Z,1.92
2022-09-13T18:32:17.022Z,2.10
2022-09-13T18:34:19.824Z,1.88
2022-09-13T18:36:23.648Z,1.90
2022-09-13T18:38:26.854Z,1.60
2022-09-13T18:40:29.367Z,1.65
2022-09-13T18:42:33.458Z,1.73
2022-09-13T18:44:36.752Z,1.70
2022-09-13T18:46:40.471Z,1.73
2022-09-13T18:48:47.813Z,1.80
2022-09-13T18:50:50.841Z,1.75
2022-09-13T18:52:55.990Z,1.67
2022-09-13T18:54:59.366Z,1.40
2022-09-13T18:57:03.284Z,1.67
2022-09-13T18:59:08.860Z,1.90
2022-09-13T19:01:15.060Z,1.70
2022-09-13T19:03:18.817Z,1.70
2022-09-13T19:05:30.435Z,1.63
2022-09-13T19:07:34.023Z,1.45
2022-09-13T19:09:38.198Z,1.50
2022-09-13T19:11:48.036Z,1.40
2022-09-13T19:13:52.356Z,1.35
2022-09-13T19:15:58.874Z,1.80
2022-09-13T19:18:01.606Z,1.60
2022-09-13T19:20:06.113Z,1.50
2022-09-13T19:22:12.085Z,1.67
2022-09-13T19:24:19.076Z,1.42
2022-09-13T19:26:25.057Z,1.70
2022-09-13T19:28:28.277Z,1.77
2022-09-13T19:30:33.957Z,1.40
2022-09-13T19:32:39.938Z,1.33
2022-09-13T19:34:42.471Z,1.30
2022-09-13T19:36:47.142Z,1.73
2022-09-13T19:38:58.178Z,1.30
2022-09-13T19:41:01.625Z,1.20
2022-09-13T19:43:07.282Z,1.80
2022-09-13T19:45:11.051Z,1.60
2022-09-13T19:49:35.916Z,1.90
2022-09-13T19:51:39.565Z,1.70
2022-09-13T19:53:56.348Z,1.60
2022-09-13T19:56:03.610Z,2.00
2022-09-13T19:58:05.993Z,1.60
2022-09-13T20:00:10.020Z,1.80
2022-09-13T20:02:12.334Z,1.70
2022-09-13T20:04:16.755Z,1.60
2022-09-13T20:06:19.956Z,1.55
2022-09-13T20:08:23.243Z,1.70
2022-09-13T20:10:25.535Z,1.90
2022-09-13T20:12:30.546Z,1.60
2022-09-13T20:14:32.865Z,1.65
2022-09-13T20:16:42.825Z,1.80
2022-09-13T20:18:45.439Z,1.50
2022-09-13T20:20:51.662Z,1.70
2022-09-13T20:22:54.017Z,1.80
2022-09-13T20:24:56.282Z,1.85
2022-09-13T20:26:58.486Z,1.50
2022-09-13T20:29:06.081Z,1.67
2022-09-13T20:31:09.231Z,1.65
2022-09-13T20:33:11.657Z,1.80
2022-09-13T20:35:14.067Z,1.50
2022-09-13T20:37:17.376Z,1.93
2022-09-13T20:39:20.104Z,1.50
2022-09-13T20:41:24.278Z,1.50
2022-09-13T20:45:32.656Z,1.80
2022-09-13T20:47:37.698Z,1.60
2022-09-13T20:49:40.467Z,1.60
2022-09-13T20:51:43.544Z,2.05
2022-09-13T20:53:53.666Z,1.42
2022-09-13T20:55:56.565Z,1.95
2022-09-13T20:58:04.651Z,1.70
2022-09-13T21:00:10.960Z,1.50
2022-09-13T21:02:19.572Z,1.70
2022-09-13T21:04:22.700Z,1.65
2022-09-13T21:06:27.093Z,1.80
2022-09-13T21:08:41.612Z,1.60
2022-09-13T21:10:44.169Z,1.90
2022-09-13T21:12:51.125Z,2.10
2022-09-13T21:14:54.184Z,1.80
2022-09-13T21:16:56.894Z,1.70
2022-09-13T21:19:04.120Z,1.92
2022-09-13T21:21:08.512Z,1.67
2022-09-13T21:23:10.867Z,1.73
2022-09-13T21:25:13.447Z,1.70
2022-09-13T21:27:16.465Z,1.73
2022-09-13T21:29:19.109Z,1.55
2022-09-13T21:31:25.158Z,1.60
2022-09-13T21:33:28.479Z,1.48
2022-09-13T21:35:39.346Z,1.75
2022-09-13T21:37:43.348Z,1.77
2022-09-13T21:39:46.108Z,1.50
2022-09-13T21:41:49.340Z,2.08
2022-09-13T21:43:52.093Z,1.80
2022-09-13T21:46:01.703Z,1.77
2022-09-13T21:48:06.166Z,2.00
2022-09-13T21:50:09.693Z,2.55
2022-09-13T21:52:14.809Z,1.90
2022-09-13T21:54:21.396Z,1.55
2022-09-13T21:56:28.705Z,1.90
2022-09-13T21:58:30.885Z,1.80
2022-09-13T22:00:33.448Z,1.90
2022-09-13T22:02:55.655Z,2.40
2022-09-13T22:05:00.289Z,1.90
2022-09-13T22:09:10.650Z,1.98
2022-09-13T22:11:16.306Z,1.80
2022-09-13T22:13:18.725Z,1.70
2022-09-13T22:15:20.866Z,2.10
2022-09-13T22:17:23.353Z,1.77
2022-09-13T22:19:26.997Z,2.22
2022-09-13T22:21:31.103Z,1.90
2022-09-13T22:23:33.664Z,2.38
2022-09-13T22:25:41.255Z,1.92
2022-09-13T22:27:43.579Z,2.00
2022-09-13T22:29:46.714Z,1.80
2022-09-13T22:31:50.587Z,1.95
2022-09-13T22:33:54.012Z,1.73
2022-09-13T22:36:00.139Z,2.17
2022-09-13T22:38:03.062Z,2.00
2022-09-13T22:40:06.332Z,2.08
2022-09-13T22:42:11.777Z,2.22
2022-09-13T22:44:14.040Z,2.05
2022-09-13T22:46:19.611Z,2.05
2022-09-13T22:48:22.825Z,2.08
2022-09-13T22:50:25.066Z,2.30
2022-09-13T22:52:27.184Z,2.00
2022-09-13T22:54:29.431Z,2.08
2022-09-13T22:56:33.042Z,2.33
2022-09-13T22:58:38.681Z,2.00
2022-09-13T23:00:41.355Z,2.13
2022-09-13T23:02:47.072Z,2.20
2022-09-13T23:04:49.507Z,2.30
2022-09-13T23:06:52.858Z,1.90
2022-09-13T23:09:00.030Z,2.00
2022-09-13T23:11:10.129Z,1.90
2022-09-13T23:13:12.726Z,1.70
2022-09-13T23:15:19.934Z,2.28
2022-09-13T23:17:22.067Z,1.95
2022-09-13T23:19:25.849Z,2.00
2022-09-13T23:21:31.060Z,2.10
2022-09-13T23:23:33.357Z,2.15
2022-09-13T23:25:35.497Z,2.20
2022-09-13T23:27:37.825Z,2.20
2022-09-13T23:29:40.046Z,2.75
2022-09-13T23:31:46.892Z,1.88
2022-09-13T23:33:51.198Z,2.45
2022-09-13T23:35:57.602Z,2.00
2022-09-13T23:37:59.818Z,2.00
2022-09-13T23:40:03.595Z,2.27
2022-09-13T23:42:06.099Z,2.00
2022-09-13T23:44:08.230Z,2.20
2022-09-13T23:46:10.614Z,1.95
2022-09-13T23:48:15.524Z,2.20
2022-09-13T23:50:18.092Z,2.13
2022-09-13T23:52:20.283Z,2.15
2022-09-13T23:54:22.492Z,2.10
2022-09-13T23:56:25.418Z,1.92
2022-09-13T23:58:28.785Z,2.10
